sensor_id;sensor_type;location;lat;lon;timestamp;P1;durP1;ratioP1;P2;durP2;ratioP2
61709;SDS011;47633;51.494;5.386;2022-08-30T00:00:28;5.05;;;2.35;;
61709;SDS011;47633;51.494;5.386;2022-08-30T00:03:12;6.53;;;2.50;;
61709;SDS011;47633;51.494;5.386;2022-08-30T00:05:38;5.63;;;2.50;;
61709;SDS011;47633;51.494;5.386;2022-08-30T00:08:04;4.43;;;2.38;;
61709;SDS011;47633;51.494;5.386;2022-08-30T00:10:30;4.20;;;2.28;;
61709;SDS011;47633;51.494;5.386;2022-08-30T00:12:55;5.17;;;2.40;;
61709;SDS011;47633;51.494;5.386;2022-08-30T00:15:22;5.20;;;2.55;;
61709;SDS011;47633;51.494;5.386;2022-08-30T00:17:48;6.10;;;2.92;;
61709;SDS011;47633;51.494;5.386;2022-08-30T00:20:15;5.25;;;2.30;;
61709;SDS011;47633;51.494;5.386;2022-08-30T00:22:43;6.32;;;2.50;;
61709;SDS011;47633;51.494;5.386;2022-08-30T00:25:09;4.72;;;2.40;;
61709;SDS011;47633;51.494;5.386;2022-08-30T00:27:36;5.68;;;2.67;;
61709;SDS011;47633;51.494;5.386;2022-08-30T00:30:02;4.30;;;2.20;;
61709;SDS011;47633;51.494;5.386;2022-08-30T00:32:28;5.93;;;2.40;;
61709;SDS011;47633;51.494;5.386;2022-08-30T00:34:53;5.97;;;2.50;;
61709;SDS011;47633;51.494;5.386;2022-08-30T00:37:19;4.05;;;2.20;;
61709;SDS011;47633;51.494;5.386;2022-08-30T00:39:45;5.50;;;2.38;;
61709;SDS011;47633;51.494;5.386;2022-08-30T00:42:12;5.50;;;2.78;;
61709;SDS011;47633;51.494;5.386;2022-08-30T00:44:38;4.88;;;2.20;;
61709;SDS011;47633;51.494;5.386;2022-08-30T00:47:04;6.20;;;2.58;;
61709;SDS011;47633;51.494;5.386;2022-08-30T00:49:30;5.93;;;2.53;;
61709;SDS011;47633;51.494;5.386;2022-08-30T00:51:57;4.72;;;2.25;;
61709;SDS011;47633;51.494;5.386;2022-08-30T00:54:23;5.90;;;2.45;;
61709;SDS011;47633;51.494;5.386;2022-08-30T00:56:50;5.65;;;2.50;;
61709;SDS011;47633;51.494;5.386;2022-08-30T00:59:16;4.70;;;2.13;;
61709;SDS011;47633;51.494;5.386;2022-08-30T01:01:42;5.50;;;2.40;;
61709;SDS011;47633;51.494;5.386;2022-08-30T01:04:07;5.18;;;2.25;;
61709;SDS011;47633;51.494;5.386;2022-08-30T01:06:34;5.78;;;2.33;;
61709;SDS011;47633;51.494;5.386;2022-08-30T01:09:00;5.32;;;2.25;;
61709;SDS011;47633;51.494;5.386;2022-08-30T01:11:28;4.57;;;2.30;;
61709;SDS011;47633;51.494;5.386;2022-08-30T01:13:56;4.10;;;2.10;;
61709;SDS011;47633;51.494;5.386;2022-08-30T01:16:22;4.22;;;2.10;;
61709;SDS011;47633;51.494;5.386;2022-08-30T01:18:49;4.65;;;2.33;;
61709;SDS011;47633;51.494;5.386;2022-08-30T01:23:49;5.05;;;2.28;;
61709;SDS011;47633;51.494;5.386;2022-08-30T01:26:17;5.55;;;2.30;;
61709;SDS011;47633;51.494;5.386;2022-08-30T01:28:44;4.78;;;1.95;;
61709;SDS011;47633;51.494;5.386;2022-08-30T01:31:12;5.15;;;2.35;;
61709;SDS011;47633;51.494;5.386;2022-08-30T01:33:37;5.32;;;2.33;;
61709;SDS011;47633;51.494;5.386;2022-08-30T01:36:05;5.82;;;2.25;;
61709;SDS011;47633;51.494;5.386;2022-08-30T01:38:56;5.97;;;2.30;;
61709;SDS011;47633;51.494;5.386;2022-08-30T01:41:28;6.32;;;2.22;;
61709;SDS011;47633;51.494;5.386;2022-08-30T01:43:56;4.82;;;2.30;;
61709;SDS011;47633;51.494;5.386;2022-08-30T01:46:25;4.80;;;2.08;;
61709;SDS011;47633;51.494;5.386;2022-08-30T01:48:56;4.78;;;2.33;;
61709;SDS011;47633;51.494;5.386;2022-08-30T01:51:23;4.78;;;2.00;;
61709;SDS011;47633;51.494;5.386;2022-08-30T01:53:51;4.88;;;2.30;;
61709;SDS011;47633;51.494;5.386;2022-08-30T01:56:17;5.38;;;2.30;;
61709;SDS011;47633;51.494;5.386;2022-08-30T01:58:42;3.83;;;1.90;;
61709;SDS011;47633;51.494;5.386;2022-08-30T02:01:10;4.75;;;2.20;;
61709;SDS011;47633;51.494;5.386;2022-08-30T02:03:41;4.60;;;2.25;;
61709;SDS011;47633;51.494;5.386;2022-08-30T02:06:09;3.88;;;2.20;;
61709;SDS011;47633;51.494;5.386;2022-08-30T02:08:37;5.60;;;2.20;;
61709;SDS011;47633;51.494;5.386;2022-08-30T02:11:04;3.83;;;2.13;;
61709;SDS011;47633;51.494;5.386;2022-08-30T02:13:29;4.78;;;2.05;;
61709;SDS011;47633;51.494;5.386;2022-08-30T02:15:55;4.45;;;2.10;;
61709;SDS011;47633;51.494;5.386;2022-08-30T02:18:21;5.22;;;2.10;;
61709;SDS011;47633;51.494;5.386;2022-08-30T02:20:50;5.03;;;2.72;;
61709;SDS011;47633;51.494;5.386;2022-08-30T02:23:15;4.13;;;2.03;;
61709;SDS011;47633;51.494;5.386;2022-08-30T02:25:41;4.00;;;2.10;;
61709;SDS011;47633;51.494;5.386;2022-08-30T02:28:07;4.90;;;2.35;;
61709;SDS011;47633;51.494;5.386;2022-08-30T02:30:33;5.00;;;2.22;;
61709;SDS011;47633;51.494;5.386;2022-08-30T02:32:58;3.80;;;2.05;;
61709;SDS011;47633;51.494;5.386;2022-08-30T02:35:24;3.83;;;2.10;;
61709;SDS011;47633;51.494;5.386;2022-08-30T02:37:50;4.20;;;1.98;;
61709;SDS011;47633;51.494;5.386;2022-08-30T02:40:15;4.90;;;2.13;;
61709;SDS011;47633;51.494;5.386;2022-08-30T02:42:42;3.97;;;2.10;;
61709;SDS011;47633;51.494;5.386;2022-08-30T02:45:07;4.93;;;2.10;;
61709;SDS011;47633;51.494;5.386;2022-08-30T02:47:34;5.03;;;2.30;;
61709;SDS011;47633;51.494;5.386;2022-08-30T02:50:00;4.00;;;2.10;;
61709;SDS011;47633;51.494;5.386;2022-08-30T02:52:27;4.90;;;2.45;;
61709;SDS011;47633;51.494;5.386;2022-08-30T02:54:53;3.90;;;1.97;;
61709;SDS011;47633;51.494;5.386;2022-08-30T02:57:19;6.05;;;2.03;;
61709;SDS011;47633;51.494;5.386;2022-08-30T02:59:44;3.60;;;1.70;;
61709;SDS011;47633;51.494;5.386;2022-08-30T03:02:11;3.70;;;1.98;;
61709;SDS011;47633;51.494;5.386;2022-08-30T03:04:37;5.10;;;1.90;;
61709;SDS011;47633;51.494;5.386;2022-08-30T03:07:03;7.65;;;2.10;;
61709;SDS011;47633;51.494;5.386;2022-08-30T03:09:29;4.95;;;2.15;;
61709;SDS011;47633;51.494;5.386;2022-08-30T03:11:55;5.03;;;2.00;;
61709;SDS011;47633;51.494;5.386;2022-08-30T03:14:21;4.43;;;1.98;;
61709;SDS011;47633;51.494;5.386;2022-08-30T03:16:46;3.85;;;1.83;;
61709;SDS011;47633;51.494;5.386;2022-08-30T03:19:12;3.95;;;1.92;;
61709;SDS011;47633;51.494;5.386;2022-08-30T03:21:37;5.97;;;2.10;;
61709;SDS011;47633;51.494;5.386;2022-08-30T03:24:02;3.87;;;1.93;;
61709;SDS011;47633;51.494;5.386;2022-08-30T03:26:28;4.78;;;2.50;;
61709;SDS011;47633;51.494;5.386;2022-08-30T03:28:53;5.73;;;2.33;;
61709;SDS011;47633;51.494;5.386;2022-08-30T03:31:18;5.33;;;2.17;;
61709;SDS011;47633;51.494;5.386;2022-08-30T03:33:43;4.10;;;1.90;;
61709;SDS011;47633;51.494;5.386;2022-08-30T03:36:09;4.72;;;1.92;;
61709;SDS011;47633;51.494;5.386;2022-08-30T03:38:35;4.13;;;1.98;;
61709;SDS011;47633;51.494;5.386;2022-08-30T03:41:01;5.18;;;2.03;;
61709;SDS011;47633;51.494;5.386;2022-08-30T03:43:26;4.22;;;1.90;;
61709;SDS011;47633;51.494;5.386;2022-08-30T03:45:51;4.73;;;2.20;;
61709;SDS011;47633;51.494;5.386;2022-08-30T03:48:17;4.03;;;2.00;;
61709;SDS011;47633;51.494;5.386;2022-08-30T03:50:42;4.47;;;1.90;;
61709;SDS011;47633;51.494;5.386;2022-08-30T03:53:07;5.30;;;1.75;;
61709;SDS011;47633;51.494;5.386;2022-08-30T03:55:32;3.73;;;1.90;;
61709;SDS011;47633;51.494;5.386;2022-08-30T03:57:58;4.45;;;2.15;;
61709;SDS011;47633;51.494;5.386;2022-08-30T04:00:24;3.63;;;1.77;;
61709;SDS011;47633;51.494;5.386;2022-08-30T04:02:50;4.07;;;1.90;;
61709;SDS011;47633;51.494;5.386;2022-08-30T04:05:15;5.97;;;2.17;;
61709;SDS011;47633;51.494;5.386;2022-08-30T04:07:40;4.05;;;1.90;;
61709;SDS011;47633;51.494;5.386;2022-08-30T04:10:06;4.23;;;1.90;;
61709;SDS011;47633;51.494;5.386;2022-08-30T04:12:33;4.32;;;1.80;;
61709;SDS011;47633;51.494;5.386;2022-08-30T04:14:58;4.68;;;2.00;;
61709;SDS011;47633;51.494;5.386;2022-08-30T04:17:23;3.13;;;1.67;;
61709;SDS011;47633;51.494;5.386;2022-08-30T04:19:49;3.47;;;1.80;;
61709;SDS011;47633;51.494;5.386;2022-08-30T04:22:14;5.00;;;2.20;;
61709;SDS011;47633;51.494;5.386;2022-08-30T04:24:40;4.50;;;1.98;;
61709;SDS011;47633;51.494;5.386;2022-08-30T04:27:06;3.45;;;1.92;;
61709;SDS011;47633;51.494;5.386;2022-08-30T04:29:32;3.70;;;1.95;;
61709;SDS011;47633;51.494;5.386;2022-08-30T04:31:58;3.83;;;2.00;;
61709;SDS011;47633;51.494;5.386;2022-08-30T04:34:23;4.60;;;1.90;;
61709;SDS011;47633;51.494;5.386;2022-08-30T04:36:49;4.82;;;2.05;;
61709;SDS011;47633;51.494;5.386;2022-08-30T04:39:14;3.38;;;1.80;;
61709;SDS011;47633;51.494;5.386;2022-08-30T04:41:41;4.72;;;1.95;;
61709;SDS011;47633;51.494;5.386;2022-08-30T04:44:06;3.90;;;2.00;;
61709;SDS011;47633;51.494;5.386;2022-08-30T04:46:32;3.97;;;1.90;;
61709;SDS011;47633;51.494;5.386;2022-08-30T04:48:59;4.00;;;2.05;;
61709;SDS011;47633;51.494;5.386;2022-08-30T04:51:25;4.40;;;2.00;;
61709;SDS011;47633;51.494;5.386;2022-08-30T04:53:50;3.80;;;1.85;;
61709;SDS011;47633;51.494;5.386;2022-08-30T04:56:16;3.78;;;2.10;;
61709;SDS011;47633;51.494;5.386;2022-08-30T04:58:47;4.43;;;2.00;;
61709;SDS011;47633;51.494;5.386;2022-08-30T05:01:15;3.58;;;2.05;;
61709;SDS011;47633;51.494;5.386;2022-08-30T05:03:42;3.42;;;2.10;;
61709;SDS011;47633;51.494;5.386;2022-08-30T05:06:10;3.58;;;1.70;;
61709;SDS011;47633;51.494;5.386;2022-08-30T05:08:35;3.55;;;1.83;;
61709;SDS011;47633;51.494;5.386;2022-08-30T05:11:03;3.60;;;2.07;;
61709;SDS011;47633;51.494;5.386;2022-08-30T05:13:29;4.47;;;2.05;;
61709;SDS011;47633;51.494;5.386;2022-08-30T05:15:55;3.92;;;2.17;;
61709;SDS011;47633;51.494;5.386;2022-08-30T05:18:20;4.20;;;2.17;;
61709;SDS011;47633;51.494;5.386;2022-08-30T05:20:46;4.43;;;2.20;;
61709;SDS011;47633;51.494;5.386;2022-08-30T05:23:11;3.85;;;1.95;;
61709;SDS011;47633;51.494;5.386;2022-08-30T05:25:38;4.78;;;2.15;;
61709;SDS011;47633;51.494;5.386;2022-08-30T05:28:04;3.35;;;1.90;;
61709;SDS011;47633;51.494;5.386;2022-08-30T05:30:31;4.15;;;1.92;;
61709;SDS011;47633;51.494;5.386;2022-08-30T05:32:58;4.18;;;2.10;;
61709;SDS011;47633;51.494;5.386;2022-08-30T05:35:24;6.25;;;3.10;;
61709;SDS011;47633;51.494;5.386;2022-08-30T05:37:49;5.23;;;2.20;;
61709;SDS011;47633;51.494;5.386;2022-08-30T05:40:14;4.55;;;2.08;;
61709;SDS011;47633;51.494;5.386;2022-08-30T05:42:43;3.92;;;1.80;;
61709;SDS011;47633;51.494;5.386;2022-08-30T05:45:10;5.53;;;1.73;;
61709;SDS011;47633;51.494;5.386;2022-08-30T05:47:36;4.50;;;2.17;;
61709;SDS011;47633;51.494;5.386;2022-08-30T05:50:02;4.70;;;2.03;;
61709;SDS011;47633;51.494;5.386;2022-08-30T05:52:32;4.70;;;2.80;;
61709;SDS011;47633;51.494;5.386;2022-08-30T05:54:59;4.80;;;2.17;;
61709;SDS011;47633;51.494;5.386;2022-08-30T05:57:26;3.72;;;1.90;;
61709;SDS011;47633;51.494;5.386;2022-08-30T05:59:51;5.30;;;2.10;;
61709;SDS011;47633;51.494;5.386;2022-08-30T06:02:17;4.57;;;2.20;;
61709;SDS011;47633;51.494;5.386;2022-08-30T06:04:42;3.60;;;1.80;;
61709;SDS011;47633;51.494;5.386;2022-08-30T06:07:07;4.18;;;2.15;;
61709;SDS011;47633;51.494;5.386;2022-08-30T06:09:32;4.63;;;2.10;;
61709;SDS011;47633;51.494;5.386;2022-08-30T06:11:58;4.18;;;2.10;;
61709;SDS011;47633;51.494;5.386;2022-08-30T06:14:23;4.75;;;1.85;;
61709;SDS011;47633;51.494;5.386;2022-08-30T06:16:49;5.72;;;1.92;;
61709;SDS011;47633;51.494;5.386;2022-08-30T06:19:15;4.68;;;2.00;;
61709;SDS011;47633;51.494;5.386;2022-08-30T06:21:43;4.90;;;2.03;;
61709;SDS011;47633;51.494;5.386;2022-08-30T06:24:12;6.72;;;2.33;;
61709;SDS011;47633;51.494;5.386;2022-08-30T06:26:38;3.78;;;1.92;;
61709;SDS011;47633;51.494;5.386;2022-08-30T06:29:05;4.28;;;2.22;;
61709;SDS011;47633;51.494;5.386;2022-08-30T06:31:31;5.40;;;2.15;;
61709;SDS011;47633;51.494;5.386;2022-08-30T06:33:57;3.97;;;2.03;;
61709;SDS011;47633;51.494;5.386;2022-08-30T06:36:23;4.32;;;1.90;;
61709;SDS011;47633;51.494;5.386;2022-08-30T06:38:49;3.63;;;2.10;;
61709;SDS011;47633;51.494;5.386;2022-08-30T06:41:17;4.00;;;1.73;;
61709;SDS011;47633;51.494;5.386;2022-08-30T06:43:45;5.03;;;2.10;;
61709;SDS011;47633;51.494;5.386;2022-08-30T06:46:11;5.78;;;1.95;;
61709;SDS011;47633;51.494;5.386;2022-08-30T06:48:38;7.68;;;2.20;;
61709;SDS011;47633;51.494;5.386;2022-08-30T06:51:04;4.38;;;2.20;;
61709;SDS011;47633;51.494;5.386;2022-08-30T06:53:29;6.07;;;2.25;;
61709;SDS011;47633;51.494;5.386;2022-08-30T06:55:56;3.88;;;2.10;;
61709;SDS011;47633;51.494;5.386;2022-08-30T06:58:23;3.75;;;1.60;;
61709;SDS011;47633;51.494;5.386;2022-08-30T07:00:48;4.10;;;1.90;;
61709;SDS011;47633;51.494;5.386;2022-08-30T07:03:14;4.80;;;2.25;;
61709;SDS011;47633;51.494;5.386;2022-08-30T07:05:39;3.20;;;1.65;;
61709;SDS011;47633;51.494;5.386;2022-08-30T07:08:04;5.35;;;2.22;;
61709;SDS011;47633;51.494;5.386;2022-08-30T07:10:30;3.63;;;1.80;;
61709;SDS011;47633;51.494;5.386;2022-08-30T07:12:55;3.83;;;2.07;;
61709;SDS011;47633;51.494;5.386;2022-08-30T07:15:20;4.10;;;2.05;;
61709;SDS011;47633;51.494;5.386;2022-08-30T07:17:47;4.47;;;2.00;;
61709;SDS011;47633;51.494;5.386;2022-08-30T07:20:31;4.22;;;2.20;;
61709;SDS011;47633;51.494;5.386;2022-08-30T07:22:56;3.72;;;1.98;;
61709;SDS011;47633;51.494;5.386;2022-08-30T07:25:22;4.32;;;1.73;;
61709;SDS011;47633;51.494;5.386;2022-08-30T07:27:47;4.67;;;2.27;;
61709;SDS011;47633;51.494;5.386;2022-08-30T07:30:15;6.40;;;1.70;;
61709;SDS011;47633;51.494;5.386;2022-08-30T07:32:41;5.70;;;1.83;;
61709;SDS011;47633;51.494;5.386;2022-08-30T07:35:07;3.38;;;1.58;;
61709;SDS011;47633;51.494;5.386;2022-08-30T07:37:32;4.82;;;1.90;;
61709;SDS011;47633;51.494;5.386;2022-08-30T07:39:58;4.43;;;2.00;;
61709;SDS011;47633;51.494;5.386;2022-08-30T07:42:23;6.43;;;2.05;;
61709;SDS011;47633;51.494;5.386;2022-08-30T07:44:48;3.28;;;1.85;;
61709;SDS011;47633;51.494;5.386;2022-08-30T07:47:13;5.47;;;2.20;;
61709;SDS011;47633;51.494;5.386;2022-08-30T07:49:40;3.13;;;1.70;;
61709;SDS011;47633;51.494;5.386;2022-08-30T07:52:06;3.47;;;1.98;;
61709;SDS011;47633;51.494;5.386;2022-08-30T07:54:31;3.95;;;1.85;;
61709;SDS011;47633;51.494;5.386;2022-08-30T07:56:57;3.47;;;1.90;;
61709;SDS011;47633;51.494;5.386;2022-08-30T07:59:22;3.67;;;1.88;;
61709;SDS011;47633;51.494;5.386;2022-08-30T08:01:48;4.78;;;1.95;;
61709;SDS011;47633;51.494;5.386;2022-08-30T08:04:13;3.22;;;1.60;;
61709;SDS011;47633;51.494;5.386;2022-08-30T08:06:39;5.00;;;2.13;;
61709;SDS011;47633;51.494;5.386;2022-08-30T08:09:05;3.45;;;1.70;;
61709;SDS011;47633;51.494;5.386;2022-08-30T08:11:31;4.60;;;1.55;;
61709;SDS011;47633;51.494;5.386;2022-08-30T08:14:00;4.45;;;1.70;;
61709;SDS011;47633;51.494;5.386;2022-08-30T08:16:27;3.25;;;1.60;;
61709;SDS011;47633;51.494;5.386;2022-08-30T08:18:54;3.10;;;1.40;;
61709;SDS011;47633;51.494;5.386;2022-08-30T08:21:21;3.97;;;1.60;;
61709;SDS011;47633;51.494;5.386;2022-08-30T08:23:47;3.05;;;1.70;;
61709;SDS011;47633;51.494;5.386;2022-08-30T08:26:13;3.40;;;1.55;;
61709;SDS011;47633;51.494;5.386;2022-08-30T08:28:38;4.20;;;1.60;;
61709;SDS011;47633;51.494;5.386;2022-08-30T08:31:12;3.58;;;1.67;;
61709;SDS011;47633;51.494;5.386;2022-08-30T08:33:39;4.28;;;1.58;;
61709;SDS011;47633;51.494;5.386;2022-08-30T08:36:04;3.03;;;1.40;;
61709;SDS011;47633;51.494;5.386;2022-08-30T08:38:30;4.60;;;1.60;;
61709;SDS011;47633;51.494;5.386;2022-08-30T08:43:42;2.95;;;1.42;;
61709;SDS011;47633;51.494;5.386;2022-08-30T08:48:56;3.08;;;1.60;;
61709;SDS011;47633;51.494;5.386;2022-08-30T08:51:26;3.10;;;1.70;;
61709;SDS011;47633;51.494;5.386;2022-08-30T08:56:38;3.77;;;1.73;;
61709;SDS011;47633;51.494;5.386;2022-08-30T08:59:06;4.38;;;1.40;;
61709;SDS011;47633;51.494;5.386;2022-08-30T09:01:33;2.88;;;1.50;;
61709;SDS011;47633;51.494;5.386;2022-08-30T09:04:00;3.53;;;1.52;;
61709;SDS011;47633;51.494;5.386;2022-08-30T09:09:37;3.50;;;1.40;;
61709;SDS011;47633;51.494;5.386;2022-08-30T09:12:05;4.25;;;1.52;;
61709;SDS011;47633;51.494;5.386;2022-08-30T09:14:33;3.63;;;1.48;;
61709;SDS011;47633;51.494;5.386;2022-08-30T09:17:02;2.50;;;1.40;;
61709;SDS011;47633;51.494;5.386;2022-08-30T09:22:00;3.47;;;1.40;;
61709;SDS011;47633;51.494;5.386;2022-08-30T09:24:43;2.22;;;1.23;;
61709;SDS011;47633;51.494;5.386;2022-08-30T09:29:48;4.38;;;1.50;;
61709;SDS011;47633;51.494;5.386;2022-08-30T09:32:28;3.58;;;1.50;;
61709;SDS011;47633;51.494;5.386;2022-08-30T09:34:55;3.17;;;1.40;;
61709;SDS011;47633;51.494;5.386;2022-08-30T09:37:23;3.50;;;1.30;;
61709;SDS011;47633;51.494;5.386;2022-08-30T09:39:54;2.38;;;1.20;;
61709;SDS011;47633;51.494;5.386;2022-08-30T09:44:50;2.25;;;1.30;;
61709;SDS011;47633;51.494;5.386;2022-08-30T09:47:38;2.13;;;1.25;;
61709;SDS011;47633;51.494;5.386;2022-08-30T09:50:08;4.30;;;1.10;;
61709;SDS011;47633;51.494;5.386;2022-08-30T09:52:44;3.33;;;1.25;;
61709;SDS011;47633;51.494;5.386;2022-08-30T10:00:56;2.55;;;1.13;;
61709;SDS011;47633;51.494;5.386;2022-08-30T10:03:31;2.10;;;1.27;;
61709;SDS011;47633;51.494;5.386;2022-08-30T10:06:14;2.80;;;1.20;;
61709;SDS011;47633;51.494;5.386;2022-08-30T10:09:04;2.97;;;1.20;;
61709;SDS011;47633;51.494;5.386;2022-08-30T10:19:28;2.80;;;1.20;;
61709;SDS011;47633;51.494;5.386;2022-08-30T10:22:03;2.58;;;1.10;;
61709;SDS011;47633;51.494;5.386;2022-08-30T10:24:38;2.63;;;1.10;;
61709;SDS011;47633;51.494;5.386;2022-08-30T10:27:25;2.80;;;1.20;;
61709;SDS011;47633;51.494;5.386;2022-08-30T10:30:06;2.88;;;1.33;;
61709;SDS011;47633;51.494;5.386;2022-08-30T10:32:38;2.03;;;1.10;;
61709;SDS011;47633;51.494;5.386;2022-08-30T10:35:10;2.90;;;1.25;;
61709;SDS011;47633;51.494;5.386;2022-08-30T10:37:40;2.40;;;1.20;;
61709;SDS011;47633;51.494;5.386;2022-08-30T10:40:17;1.75;;;1.00;;
61709;SDS011;47633;51.494;5.386;2022-08-30T10:43:12;2.00;;;1.20;;
61709;SDS011;47633;51.494;5.386;2022-08-30T10:45:45;2.40;;;1.23;;
61709;SDS011;47633;51.494;5.386;2022-08-30T10:48:20;3.03;;;1.45;;
61709;SDS011;47633;51.494;5.386;2022-08-30T10:50:51;3.85;;;1.38;;
61709;SDS011;47633;51.494;5.386;2022-08-30T10:53:31;2.45;;;1.20;;
61709;SDS011;47633;51.494;5.386;2022-08-30T10:58:38;2.45;;;1.10;;
61709;SDS011;47633;51.494;5.386;2022-08-30T11:06:39;2.25;;;1.10;;
61709;SDS011;47633;51.494;5.386;2022-08-30T11:09:19;3.25;;;1.30;;
61709;SDS011;47633;51.494;5.386;2022-08-30T11:14:33;3.15;;;1.20;;
61709;SDS011;47633;51.494;5.386;2022-08-30T11:17:04;3.78;;;1.50;;
61709;SDS011;47633;51.494;5.386;2022-08-30T11:19:36;3.78;;;1.25;;
61709;SDS011;47633;51.494;5.386;2022-08-30T11:22:23;3.05;;;1.08;;
61709;SDS011;47633;51.494;5.386;2022-08-30T11:27:39;2.67;;;1.10;;
61709;SDS011;47633;51.494;5.386;2022-08-30T11:40:50;4.70;;;1.20;;
61709;SDS011;47633;51.494;5.386;2022-08-30T11:46:14;3.13;;;1.27;;
61709;SDS011;47633;51.494;5.386;2022-08-30T11:54:15;5.05;;;1.50;;
61709;SDS011;47633;51.494;5.386;2022-08-30T12:02:07;4.97;;;1.23;;
61709;SDS011;47633;51.494;5.386;2022-08-30T12:07:09;3.78;;;1.73;;
61709;SDS011;47633;51.494;5.386;2022-08-30T12:17:20;3.72;;;1.27;;
61709;SDS011;47633;51.494;5.386;2022-08-30T12:20:20;3.95;;;1.20;;
61709;SDS011;47633;51.494;5.386;2022-08-30T12:22:46;4.57;;;1.30;;
61709;SDS011;47633;51.494;5.386;2022-08-30T12:25:17;5.22;;;1.25;;
61709;SDS011;47633;51.494;5.386;2022-08-30T12:27:47;3.17;;;1.05;;
61709;SDS011;47633;51.494;5.386;2022-08-30T12:30:13;3.38;;;1.02;;
61709;SDS011;47633;51.494;5.386;2022-08-30T12:32:51;3.13;;;1.10;;
61709;SDS011;47633;51.494;5.386;2022-08-30T12:35:26;3.55;;;1.27;;
61709;SDS011;47633;51.494;5.386;2022-08-30T12:37:59;5.20;;;1.20;;
61709;SDS011;47633;51.494;5.386;2022-08-30T12:40:28;3.88;;;1.10;;
61709;SDS011;47633;51.494;5.386;2022-08-30T12:42:57;3.60;;;1.00;;
61709;SDS011;47633;51.494;5.386;2022-08-30T12:45:25;3.15;;;1.17;;
61709;SDS011;47633;51.494;5.386;2022-08-30T12:48:07;3.28;;;1.30;;
61709;SDS011;47633;51.494;5.386;2022-08-30T12:50:36;4.75;;;1.67;;
61709;SDS011;47633;51.494;5.386;2022-08-30T12:53:09;3.72;;;1.30;;
61709;SDS011;47633;51.494;5.386;2022-08-30T12:58:46;2.20;;;0.90;;
61709;SDS011;47633;51.494;5.386;2022-08-30T13:01:15;3.55;;;1.20;;
61709;SDS011;47633;51.494;5.386;2022-08-30T13:03:53;5.80;;;1.77;;
61709;SDS011;47633;51.494;5.386;2022-08-30T13:06:39;5.13;;;1.70;;
61709;SDS011;47633;51.494;5.386;2022-08-30T13:09:07;5.55;;;1.45;;
61709;SDS011;47633;51.494;5.386;2022-08-30T13:11:34;4.35;;;1.42;;
61709;SDS011;47633;51.494;5.386;2022-08-30T13:17:03;5.57;;;1.85;;
61709;SDS011;47633;51.494;5.386;2022-08-30T13:19:34;6.35;;;1.40;;
61709;SDS011;47633;51.494;5.386;2022-08-30T13:22:02;6.03;;;1.75;;
61709;SDS011;47633;51.494;5.386;2022-08-30T13:24:28;5.78;;;1.85;;
61709;SDS011;47633;51.494;5.386;2022-08-30T13:26:54;5.43;;;1.40;;
61709;SDS011;47633;51.494;5.386;2022-08-30T13:29:24;4.82;;;1.33;;
61709;SDS011;47633;51.494;5.386;2022-08-30T13:31:51;3.83;;;1.40;;
61709;SDS011;47633;51.494;5.386;2022-08-30T13:34:16;4.22;;;1.17;;
61709;SDS011;47633;51.494;5.386;2022-08-30T13:36:47;2.67;;;1.15;;
61709;SDS011;47633;51.494;5.386;2022-08-30T13:39:14;4.82;;;1.40;;
61709;SDS011;47633;51.494;5.386;2022-08-30T13:41:40;4.85;;;1.30;;
61709;SDS011;47633;51.494;5.386;2022-08-30T13:44:05;5.05;;;1.15;;
61709;SDS011;47633;51.494;5.386;2022-08-30T13:46:31;2.85;;;1.05;;
61709;SDS011;47633;51.494;5.386;2022-08-30T13:49:01;4.90;;;1.25;;
61709;SDS011;47633;51.494;5.386;2022-08-30T13:51:29;3.13;;;1.10;;
61709;SDS011;47633;51.494;5.386;2022-08-30T13:53:54;3.40;;;1.37;;
61709;SDS011;47633;51.494;5.386;2022-08-30T13:56:20;3.80;;;1.10;;
61709;SDS011;47633;51.494;5.386;2022-08-30T13:58:45;4.18;;;1.30;;
61709;SDS011;47633;51.494;5.386;2022-08-30T14:01:10;3.73;;;1.20;;
61709;SDS011;47633;51.494;5.386;2022-08-30T14:03:36;3.25;;;1.25;;
61709;SDS011;47633;51.494;5.386;2022-08-30T14:06:01;2.40;;;0.93;;
61709;SDS011;47633;51.494;5.386;2022-08-30T14:08:27;4.22;;;1.48;;
61709;SDS011;47633;51.494;5.386;2022-08-30T14:10:54;2.88;;;1.23;;
61709;SDS011;47633;51.494;5.386;2022-08-30T14:13:21;2.88;;;1.15;;
61709;SDS011;47633;51.494;5.386;2022-08-30T14:15:46;4.57;;;1.60;;
61709;SDS011;47633;51.494;5.386;2022-08-30T14:18:13;4.20;;;1.30;;
61709;SDS011;47633;51.494;5.386;2022-08-30T14:20:38;4.45;;;1.50;;
61709;SDS011;47633;51.494;5.386;2022-08-30T14:23:03;6.00;;;1.70;;
61709;SDS011;47633;51.494;5.386;2022-08-30T14:25:29;3.67;;;1.27;;
61709;SDS011;47633;51.494;5.386;2022-08-30T14:27:54;4.57;;;1.73;;
61709;SDS011;47633;51.494;5.386;2022-08-30T14:30:20;3.83;;;1.20;;
61709;SDS011;47633;51.494;5.386;2022-08-30T14:32:46;3.42;;;1.33;;
61709;SDS011;47633;51.494;5.386;2022-08-30T14:35:11;4.40;;;1.80;;
61709;SDS011;47633;51.494;5.386;2022-08-30T14:37:36;4.40;;;1.33;;
61709;SDS011;47633;51.494;5.386;2022-08-30T14:40:02;3.77;;;1.27;;
61709;SDS011;47633;51.494;5.386;2022-08-30T14:42:28;3.33;;;1.27;;
61709;SDS011;47633;51.494;5.386;2022-08-30T14:44:54;2.80;;;1.30;;
61709;SDS011;47633;51.494;5.386;2022-08-30T14:47:19;3.47;;;1.60;;
61709;SDS011;47633;51.494;5.386;2022-08-30T14:49:44;4.60;;;1.50;;
61709;SDS011;47633;51.494;5.386;2022-08-30T14:52:09;2.67;;;1.13;;
61709;SDS011;47633;51.494;5.386;2022-08-30T14:54:35;3.15;;;1.20;;
61709;SDS011;47633;51.494;5.386;2022-08-30T14:57:00;4.05;;;1.23;;
61709;SDS011;47633;51.494;5.386;2022-08-30T14:59:26;2.85;;;1.13;;
61709;SDS011;47633;51.494;5.386;2022-08-30T15:01:51;2.60;;;1.10;;
61709;SDS011;47633;51.494;5.386;2022-08-30T15:04:16;3.78;;;1.35;;
61709;SDS011;47633;51.494;5.386;2022-08-30T15:06:43;5.57;;;1.20;;
61709;SDS011;47633;51.494;5.386;2022-08-30T15:09:10;4.43;;;1.38;;
61709;SDS011;47633;51.494;5.386;2022-08-30T15:11:38;3.47;;;1.30;;
61709;SDS011;47633;51.494;5.386;2022-08-30T15:14:04;3.47;;;1.33;;
61709;SDS011;47633;51.494;5.386;2022-08-30T15:16:31;3.72;;;1.45;;
61709;SDS011;47633;51.494;5.386;2022-08-30T15:19:00;3.60;;;1.30;;
61709;SDS011;47633;51.494;5.386;2022-08-30T15:21:33;4.00;;;1.67;;
61709;SDS011;47633;51.494;5.386;2022-08-30T15:24:00;2.42;;;1.10;;
61709;SDS011;47633;51.494;5.386;2022-08-30T15:26:27;3.90;;;1.23;;
61709;SDS011;47633;51.494;5.386;2022-08-30T15:28:53;4.75;;;1.20;;
61709;SDS011;47633;51.494;5.386;2022-08-30T15:31:19;3.17;;;1.20;;
61709;SDS011;47633;51.494;5.386;2022-08-30T15:33:47;5.18;;;1.58;;
61709;SDS011;47633;51.494;5.386;2022-08-30T15:36:13;6.25;;;1.23;;
61709;SDS011;47633;51.494;5.386;2022-08-30T15:38:39;4.82;;;1.25;;
61709;SDS011;47633;51.494;5.386;2022-08-30T15:41:07;6.25;;;1.55;;
61709;SDS011;47633;51.494;5.386;2022-08-30T15:43:33;3.95;;;1.33;;
61709;SDS011;47633;51.494;5.386;2022-08-30T15:46:12;3.85;;;1.40;;
61709;SDS011;47633;51.494;5.386;2022-08-30T15:48:40;4.00;;;1.23;;
61709;SDS011;47633;51.494;5.386;2022-08-30T15:51:05;5.63;;;1.30;;
61709;SDS011;47633;51.494;5.386;2022-08-30T15:53:32;3.50;;;1.33;;
61709;SDS011;47633;51.494;5.386;2022-08-30T15:55:58;3.70;;;1.40;;
61709;SDS011;47633;51.494;5.386;2022-08-30T15:58:23;4.00;;;1.33;;
61709;SDS011;47633;51.494;5.386;2022-08-30T16:00:49;2.53;;;1.35;;
61709;SDS011;47633;51.494;5.386;2022-08-30T16:03:14;4.23;;;1.43;;
61709;SDS011;47633;51.494;5.386;2022-08-30T16:05:39;3.30;;;1.30;;
61709;SDS011;47633;51.494;5.386;2022-08-30T16:08:05;5.05;;;1.20;;
61709;SDS011;47633;51.494;5.386;2022-08-30T16:10:30;3.63;;;1.10;;
61709;SDS011;47633;51.494;5.386;2022-08-30T16:12:56;3.42;;;1.10;;
61709;SDS011;47633;51.494;5.386;2022-08-30T16:15:24;3.30;;;1.40;;
61709;SDS011;47633;51.494;5.386;2022-08-30T16:17:49;3.80;;;1.30;;
61709;SDS011;47633;51.494;5.386;2022-08-30T16:20:14;7.03;;;1.40;;